Sign-in with your pilot id or email, or register

ICAO: LEPA Name / Country: Palma De Mallorca / Spain
Latitude: 39.5517 Longitude: 2.73881
Total Arrivals:
Strict Standards: Non-static method AirportData::getarrflights() should not be called statically, assuming $this from incompatible context in /var/www/customers/vh-7192/web/home/phpvms/core/templates/airport_info.tpl on line 18
0
Total Departures:
Strict Standards: Non-static method AirportData::getdeptflights() should not be called statically, assuming $this from incompatible context in /var/www/customers/vh-7192/web/home/phpvms/core/templates/airport_info.tpl on line 21
3
Latest Arrival: (-) Latest Departure: MTA605 (LEPA-LOWS) Laszlo Bartucz
Metar: LEPA 060400Z 36002KT 9999 FEW025 08/06 Q1022 NOSIG
More info

Charts for LEPA


NOTAM


Warning: file_get_contents(http://api.vateud.net/notams/LEPA.json): failed to open stream: Redirection limit reached, aborting in /var/www/customers/vh-7192/web/home/phpvms/core/common/NOTAMSData.class.php on line 18

Warning: Invalid argument supplied for foreach() in /var/www/customers/vh-7192/web/home/phpvms/core/common/NOTAMSData.class.php on line 22

Palma De Mallorca